Time;durP1;ratioP1;P1;durP2;ratioP2;P2;SDS_P1;SDS_P2;PMS_P1;PMS_P2;Temp;Humidity;BMP_temperature;BMP_pressure;BME280_temperature;BME280_humidity;BME280_pressure;Samples;Min_cycle;Max_cycle;Signal;HPM_P1;HPM_P2
2022/04/23 00:01:15;;;;;;;0.80;0.80;;;21.40;54.40;;;;;;4958234;28;20078;-14
2022/04/23 00:03:41;;;;;;;1.38;1.10;;;21.40;54.50;;;;;;4958798;28;20404;-14
2022/04/23 00:06:06;;;;;;;1.30;1.20;;;21.40;54.50;;;;;;4975051;28;20718;-15
2022/04/23 00:08:32;;;;;;;0.95;0.95;;;21.40;54.60;;;;;;4966893;28;20043;-15
2022/04/23 00:10:58;;;;;;;1.10;0.95;;;21.40;54.50;;;;;;4964443;28;20047;-15
2022/04/23 00:13:24;;;;;;;1.10;1.00;;;21.40;54.60;;;;;;4976931;28;20042;-16
2022/04/23 00:15:49;;;;;;;1.00;1.00;;;21.40;54.60;;;;;;4977752;28;20053;-15
2022/04/23 00:18:15;;;;;;;1.20;1.10;;;21.30;54.70;;;;;;4962744;28;20081;-15
2022/04/23 00:20:41;;;;;;;0.95;0.95;;;21.30;54.70;;;;;;4971775;28;20097;-14
2022/04/23 00:23:07;;;;;;;0.82;0.82;;;21.30;54.70;;;;;;4957552;28;20081;-15
2022/04/23 00:25:35;;;;;;;0.80;0.80;;;21.30;55.10;;;;;;4958239;28;20133;-15
2022/04/23 00:28:01;;;;;;;0.85;0.85;;;21.30;54.70;;;;;;4957114;28;20050;-15
2022/04/23 00:30:27;;;;;;;1.00;1.00;;;21.30;54.70;;;;;;4967930;28;20488;-15
2022/04/23 00:32:52;;;;;;;1.70;1.50;;;21.40;54.60;;;;;;4977446;28;20472;-15
2022/04/23 00:35:18;;;;;;;0.93;0.93;;;21.40;54.70;;;;;;4976923;28;20053;-15
2022/04/23 00:37:44;;;;;;;1.10;1.10;;;21.30;54.60;;;;;;4965271;28;20134;-15
2022/04/23 00:40:17;;;;;;;0.90;0.90;;;21.30;54.60;;;;;;4957268;28;20047;-14
2022/04/23 00:42:47;;;;;;;0.80;0.80;;;21.40;54.60;;;;;;4958377;28;20043;-15
2022/04/23 00:45:13;;;;;;;0.80;0.80;;;21.30;54.60;;;;;;4967532;28;20051;-15
2022/04/23 00:47:38;;;;;;;1.20;1.10;;;21.30;54.70;;;;;;4976602;28;20050;-15
2022/04/23 00:50:04;;;;;;;1.27;0.90;;;21.30;55.30;;;;;;4961635;28;20511;-17
2022/04/23 00:52:32;;;;;;;0.90;0.90;;;21.30;54.70;;;;;;4958044;28;20047;-15
2022/04/23 00:54:59;;;;;;;0.90;0.90;;;21.30;54.80;;;;;;4995079;28;20054;-15
2022/04/23 00:57:24;;;;;;;0.90;0.90;;;21.30;54.80;;;;;;4976587;28;20043;-15
2022/04/23 00:59:50;;;;;;;0.80;0.80;;;21.30;54.80;;;;;;4977074;28;20181;-15
2022/04/23 01:02:15;;;;;;;1.20;1.05;;;21.30;54.70;;;;;;4974042;28;20515;-15
2022/04/23 01:04:41;;;;;;;0.90;0.90;;;21.30;54.80;;;;;;4976831;28;20050;-16
2022/04/23 01:07:08;;;;;;;1.00;1.00;;;21.30;54.80;;;;;;4973091;28;20039;-16
2022/04/23 01:09:33;;;;;;;1.15;0.90;;;21.30;54.80;;;;;;4988043;28;20043;-15
2022/04/23 01:11:59;;;;;;;1.40;1.00;;;21.30;54.80;;;;;;4970876;28;20070;-15
2022/04/23 01:14:25;;;;;;;1.27;1.10;;;21.30;54.80;;;;;;4972412;28;20108;-15
2022/04/23 01:16:51;;;;;;;0.82;0.82;;;21.30;54.80;;;;;;4968036;28;20039;-14
2022/04/23 01:19:17;;;;;;;0.85;0.85;;;21.30;54.70;;;;;;4976214;28;20038;-15
2022/04/23 01:21:43;;;;;;;1.27;0.90;;;21.30;54.70;;;;;;4975029;28;20043;-15
2022/04/23 01:24:09;;;;;;;1.00;1.00;;;21.30;54.80;;;;;;4971447;28;20120;-15
2022/04/23 01:26:34;;;;;;;0.90;0.90;;;21.20;54.70;;;;;;4957337;28;20050;-15
2022/04/23 01:29:00;;;;;;;1.33;0.95;;;21.30;54.90;;;;;;4957515;28;20036;-14
2022/04/23 01:31:26;;;;;;;1.27;1.20;;;21.30;54.80;;;;;;4957296;28;20043;-15
2022/04/23 01:33:52;;;;;;;0.82;0.82;;;21.30;54.80;;;;;;4957734;28;20054;-15
2022/04/23 01:36:18;;;;;;;0.90;0.90;;;21.30;54.70;;;;;;4956813;28;20501;-15
2022/04/23 01:38:43;;;;;;;0.60;0.60;;;21.20;54.80;;;;;;4965208;28;20043;-15
2022/04/23 01:41:09;;;;;;;0.90;0.90;;;21.30;54.80;;;;;;4975863;28;20049;-15
2022/04/23 01:43:34;;;;;;;0.90;0.90;;;21.30;54.80;;;;;;4971395;28;20051;-14
2022/04/23 01:46:00;;;;;;;0.90;0.90;;;21.20;54.80;;;;;;4962022;28;20074;-15
2022/04/23 01:48:26;;;;;;;0.95;0.95;;;21.20;54.70;;;;;;4975707;28;20050;-14
2022/04/23 01:50:53;;;;;;;0.98;0.90;;;21.30;54.80;;;;;;4974218;28;20090;-16
2022/04/23 01:53:19;;;;;;;1.00;1.00;;;21.20;54.70;;;;;;4971970;28;20051;-15
2022/04/23 01:55:44;;;;;;;2.05;0.90;;;21.20;54.80;;;;;;4976103;28;20043;-15
2022/04/23 01:58:10;;;;;;;0.90;0.90;;;21.20;54.80;;;;;;4959220;28;20043;-16
2022/04/23 02:00:36;;;;;;;1.10;1.10;;;21.20;54.80;;;;;;4957224;28;20044;-15
2022/04/23 02:03:02;;;;;;;1.00;1.00;;;21.20;54.80;;;;;;4973805;28;20435;-16
2022/04/23 02:05:28;;;;;;;0.80;0.80;;;21.20;54.80;;;;;;4975789;28;20038;-15
2022/04/23 02:07:54;;;;;;;0.90;0.90;;;21.20;54.80;;;;;;4961274;28;20074;-15
2022/04/23 02:10:19;;;;;;;0.95;0.95;;;21.20;54.80;;;;;;4956252;28;20074;-15
2022/04/23 02:12:48;;;;;;;0.88;0.70;;;21.20;54.70;;;;;;4957311;28;20098;-16
2022/04/23 02:15:14;;;;;;;1.00;0.90;;;21.20;54.80;;;;;;4956449;28;20535;-15
2022/04/23 02:17:42;;;;;;;1.02;0.90;;;21.20;54.70;;;;;;4961501;28;20051;-14
2022/04/23 02:20:15;;;;;;;0.80;0.80;;;21.10;54.80;;;;;;4958777;28;20047;-15
2022/04/23 02:22:41;;;;;;;0.60;0.60;;;21.10;54.80;;;;;;4975302;28;20059;-16
2022/04/23 02:25:07;;;;;;;0.70;0.70;;;21.10;54.90;;;;;;4973896;28;20150;-15
2022/04/23 02:27:46;;;;;;;0.98;0.98;;;21.10;54.80;;;;;;4960016;28;20599;-15
2022/04/23 02:30:13;;;;;;;0.95;0.95;;;21.20;54.80;;;;;;4959916;28;20055;-16
2022/04/23 02:32:39;;;;;;;0.90;0.90;;;21.10;54.90;;;;;;4960421;28;20043;-15
2022/04/23 02:35:05;;;;;;;1.20;1.10;;;21.10;54.70;;;;;;4960417;28;20046;-15
2022/04/23 02:37:34;;;;;;;0.90;0.90;;;21.10;54.70;;;;;;4995975;28;20118;-16
2022/04/23 02:39:59;;;;;;;0.88;0.88;;;21.20;54.70;;;;;;4989738;28;20497;-15
2022/04/23 02:42:25;;;;;;;0.95;0.95;;;21.10;54.80;;;;;;4977525;28;20584;-15
2022/04/23 02:44:50;;;;;;;1.25;0.90;;;21.10;54.80;;;;;;4975834;28;20059;-15
2022/04/23 02:47:17;;;;;;;1.17;1.10;;;21.10;55.00;;;;;;4959661;28;20139;-15
2022/04/23 02:49:42;;;;;;;0.80;0.80;;;21.10;54.80;;;;;;4960235;28;20039;-15
2022/04/23 02:52:08;;;;;;;0.95;0.95;;;21.10;54.80;;;;;;4960020;28;20047;-15
2022/04/23 02:54:33;;;;;;;0.60;0.60;;;21.10;54.80;;;;;;4964355;28;20121;-15
2022/04/23 02:57:01;;;;;;;0.80;0.80;;;21.20;54.70;;;;;;4979063;28;20034;-15
2022/04/23 02:59:26;;;;;;;0.80;0.80;;;21.10;55.00;;;;;;4978579;28;20106;-14
2022/04/23 03:01:52;;;;;;;0.70;0.70;;;21.10;54.70;;;;;;4978275;28;20080;-15
2022/04/23 03:04:19;;;;;;;0.90;0.90;;;21.10;54.80;;;;;;4959196;28;20053;-14
2022/04/23 03:06:45;;;;;;;0.88;0.88;;;21.10;54.80;;;;;;4959806;28;20118;-15
2022/04/23 03:09:11;;;;;;;0.85;0.85;;;21.10;54.80;;;;;;4959420;28;20043;-16
2022/04/23 03:11:37;;;;;;;0.90;0.80;;;21.10;54.90;;;;;;4957841;28;20067;-15
2022/04/23 03:14:04;;;;;;;0.80;0.80;;;21.10;54.80;;;;;;4959604;28;20043;-14
2022/04/23 03:16:29;;;;;;;0.80;0.80;;;21.10;54.90;;;;;;4966350;28;20046;-16
2022/04/23 03:18:56;;;;;;;1.40;1.30;;;21.10;54.70;;;;;;4975953;28;20039;-14
2022/04/23 03:21:22;;;;;;;0.80;0.70;;;21.10;54.70;;;;;;4970333;28;20102;-14
2022/04/23 03:23:48;;;;;;;0.90;0.80;;;21.10;54.80;;;;;;4978021;28;20089;-15
2022/04/23 03:26:14;;;;;;;0.90;0.90;;;21.10;54.80;;;;;;4976804;28;20047;-17
2022/04/23 03:28:39;;;;;;;1.33;0.80;;;21.20;55.10;;;;;;4978380;28;20046;-15
2022/04/23 03:31:05;;;;;;;0.80;0.80;;;21.20;55.30;;;;;;4957853;28;20047;-16
2022/04/23 03:33:30;;;;;;;1.08;1.00;;;21.20;55.30;;;;;;4966270;28;20106;-14
2022/04/23 03:35:56;;;;;;;1.00;1.00;;;21.20;55.30;;;;;;4977948;28;20115;-15
2022/04/23 03:38:22;;;;;;;2.65;1.08;;;21.20;55.30;;;;;;4974103;28;20062;-15
2022/04/23 03:40:53;;;;;;;1.10;0.90;;;21.10;55.30;;;;;;4959083;28;20594;-15
2022/04/23 03:43:22;;;;;;;1.05;1.00;;;21.20;55.50;;;;;;4958462;28;20637;-15
2022/04/23 03:45:47;;;;;;;1.05;1.00;;;21.10;55.50;;;;;;4959183;28;20050;-14
2022/04/23 03:48:14;;;;;;;1.20;1.10;;;21.10;55.50;;;;;;4966874;28;20039;-14
2022/04/23 03:50:40;;;;;;;1.00;1.00;;;21.10;55.60;;;;;;4977916;28;20081;-15
2022/04/23 03:53:06;;;;;;;0.90;0.90;;;21.10;55.50;;;;;;4977721;28;20129;-15
2022/04/23 03:55:32;;;;;;;0.98;0.98;;;21.10;55.50;;;;;;4975290;28;20081;-16
2022/04/23 03:57:57;;;;;;;1.08;1.08;;;21.10;55.50;;;;;;4958967;28;20040;-14
2022/04/23 04:00:23;;;;;;;0.98;0.88;;;21.10;55.60;;;;;;4958221;28;20098;-15
2022/04/23 04:02:49;;;;;;;1.05;1.05;;;21.00;55.80;;;;;;4977170;28;20047;-16
2022/04/23 04:05:15;;;;;;;1.00;1.00;;;21.00;55.60;;;;;;4961924;28;20508;-17
2022/04/23 04:07:42;;;;;;;0.77;0.77;;;21.00;55.60;;;;;;4966070;28;20571;-15
2022/04/23 04:10:09;;;;;;;0.80;0.80;;;21.00;55.80;;;;;;4958403;28;20054;-15
2022/04/23 04:12:35;;;;;;;1.00;1.00;;;21.00;55.80;;;;;;4957896;28;20039;-15
2022/04/23 04:15:01;;;;;;;1.35;1.13;;;21.00;55.80;;;;;;4958979;28;20071;-15
2022/04/23 04:17:27;;;;;;;1.23;1.10;;;21.00;55.80;;;;;;4967427;28;20070;-15
2022/04/23 04:19:53;;;;;;;1.30;1.20;;;20.90;55.80;;;;;;4964583;28;20511;-14
2022/04/23 04:22:21;;;;;;;1.08;1.08;;;21.00;55.80;;;;;;4967499;28;20436;-15
2022/04/23 04:24:46;;;;;;;1.00;1.00;;;21.00;55.70;;;;;;4969012;28;20050;-16
2022/04/23 04:27:12;;;;;;;1.27;1.20;;;21.00;56.00;;;;;;4996213;28;20101;-17
2022/04/23 04:29:37;;;;;;;1.33;1.23;;;21.00;55.70;;;;;;4975207;28;20043;-15
2022/04/23 04:32:04;;;;;;;1.88;1.10;;;20.90;55.90;;;;;;4975262;28;20138;-14
2022/04/23 04:34:32;;;;;;;0.98;0.90;;;20.90;55.80;;;;;;4975347;28;20062;-14
2022/04/23 04:37:11;;;;;;;3.33;1.20;;;20.90;55.70;;;;;;4975367;28;20137;-16
2022/04/23 04:39:40;;;;;;;1.08;1.08;;;20.90;55.90;;;;;;4975162;28;20035;-15
2022/04/23 04:42:06;;;;;;;0.75;0.75;;;21.00;55.80;;;;;;4974287;28;20042;-16
2022/04/23 04:44:32;;;;;;;1.10;1.10;;;21.00;55.60;;;;;;4975443;28;20039;-15
2022/04/23 04:46:58;;;;;;;1.00;1.00;;;21.00;55.70;;;;;;4974432;28;20503;-15
2022/04/23 04:49:24;;;;;;;0.80;0.80;;;21.00;55.80;;;;;;4972406;28;20067;-15
2022/04/23 04:51:50;;;;;;;0.82;0.82;;;20.90;55.80;;;;;;4973324;28;20077;-15
2022/04/23 04:54:21;;;;;;;1.10;1.00;;;20.90;55.80;;;;;;4972971;28;20051;-15
2022/04/23 04:56:47;;;;;;;1.08;1.02;;;20.90;55.80;;;;;;4975181;28;20062;-16
2022/04/23 04:59:13;;;;;;;0.88;0.88;;;20.90;55.80;;;;;;4975754;28;20050;-16
2022/04/23 05:01:39;;;;;;;1.55;1.20;;;20.90;55.50;;;;;;4971692;28;20140;-19
2022/04/23 05:04:04;;;;;;;1.02;1.02;;;20.90;55.60;;;;;;4976978;28;20046;-15
2022/04/23 05:06:30;;;;;;;1.00;1.00;;;20.90;55.50;;;;;;4975942;28;20133;-17
2022/04/23 05:08:55;;;;;;;1.10;1.00;;;20.90;55.60;;;;;;4963532;28;20460;-14
2022/04/23 05:11:21;;;;;;;0.93;0.93;;;20.90;55.50;;;;;;4956934;28;20050;-15
2022/04/23 05:13:47;;;;;;;1.23;1.13;;;20.90;55.60;;;;;;4975191;28;20078;-15
2022/04/23 05:16:12;;;;;;;1.30;1.20;;;20.90;56.50;;;;;;4976615;28;20062;-15
2022/04/23 05:18:38;;;;;;;1.10;1.10;;;20.90;55.80;;;;;;4964262;28;20047;-17
2022/04/23 05:21:04;;;;;;;1.00;1.00;;;20.90;55.60;;;;;;4966211;28;20047;-15
2022/04/23 05:23:29;;;;;;;1.15;1.15;;;20.90;55.60;;;;;;4975416;28;20043;-15
2022/04/23 05:25:55;;;;;;;1.10;1.00;;;20.90;55.60;;;;;;4976811;28;20077;-16
2022/04/23 05:28:21;;;;;;;0.98;0.98;;;20.90;55.70;;;;;;4961838;28;20102;-16
2022/04/23 05:30:46;;;;;;;1.15;1.10;;;20.90;55.80;;;;;;4964021;28;20504;-15
2022/04/23 05:33:12;;;;;;;1.00;1.00;;;20.90;55.60;;;;;;4974021;28;20534;-15
2022/04/23 05:35:38;;;;;;;1.00;1.00;;;20.90;55.60;;;;;;4976013;28;20042;-15
2022/04/23 05:38:04;;;;;;;1.00;1.00;;;20.90;56.20;;;;;;4975357;28;20042;-16
2022/04/23 05:40:30;;;;;;;1.10;1.10;;;20.80;55.80;;;;;;4992133;28;20051;-15
2022/04/23 05:42:58;;;;;;;0.98;0.98;;;20.90;55.70;;;;;;4975180;28;20050;-15
2022/04/23 05:45:30;;;;;;;1.02;1.00;;;20.90;56.00;;;;;;4971496;28;20062;-15
2022/04/23 05:47:56;;;;;;;1.13;1.10;;;20.90;56.50;;;;;;4975272;28;20043;-15
2022/04/23 05:50:22;;;;;;;2.15;1.10;;;20.90;56.50;;;;;;4975824;28;20046;-17
2022/04/23 05:52:47;;;;;;;1.33;1.27;;;20.80;56.10;;;;;;4976331;28;20049;-15
2022/04/23 05:55:13;;;;;;;1.10;1.10;;;20.80;56.40;;;;;;4969506;28;20134;-15
2022/04/23 05:57:39;;;;;;;1.33;1.20;;;20.80;56.20;;;;;;4976788;28;20126;-15
2022/04/23 06:00:06;;;;;;;1.63;1.25;;;20.90;56.00;;;;;;4974896;28;20527;-14
2022/04/23 06:02:32;;;;;;;3.95;1.13;;;20.90;56.00;;;;;;4977987;28;20493;-15
2022/04/23 06:04:58;;;;;;;1.23;1.13;;;20.90;56.20;;;;;;4960972;28;20453;-15
2022/04/23 06:07:24;;;;;;;1.40;1.30;;;20.90;56.00;;;;;;4959001;28;20043;-16
2022/04/23 06:09:49;;;;;;;1.55;1.00;;;20.90;56.20;;;;;;4959276;28;20050;-15
2022/04/23 06:12:15;;;;;;;1.40;1.30;;;20.90;56.30;;;;;;4966935;28;20055;-17
2022/04/23 06:14:41;;;;;;;1.33;1.02;;;20.90;56.10;;;;;;4964983;28;20126;-17
2022/04/23 06:17:11;;;;;;;1.90;1.10;;;20.90;56.60;;;;;;4966108;28;20129;-17
2022/04/23 06:19:38;;;;;;;1.20;1.20;;;20.80;56.30;;;;;;4964728;28;20464;-18
2022/04/23 06:22:04;;;;;;;1.95;1.30;;;20.80;56.80;;;;;;4963629;28;20066;-17
2022/04/23 06:24:30;;;;;;;2.03;1.48;;;20.90;56.40;;;;;;4964755;28;20748;-17
2022/04/23 06:26:55;;;;;;;1.60;1.45;;;20.90;56.50;;;;;;4965020;28;20083;-17
2022/04/23 06:29:21;;;;;;;1.52;1.40;;;20.90;56.60;;;;;;4965796;28;20050;-17
2022/04/23 06:31:47;;;;;;;1.50;1.40;;;20.90;56.70;;;;;;4961807;28;20057;-17
2022/04/23 06:34:13;;;;;;;1.58;1.42;;;20.90;56.50;;;;;;4964528;28;20047;-17
2022/04/23 06:36:40;;;;;;;2.42;1.40;;;21.00;57.00;;;;;;4963753;28;20047;-17
2022/04/23 06:39:08;;;;;;;1.58;1.48;;;21.00;56.50;;;;;;4965426;28;20057;-16
2022/04/23 06:41:34;;;;;;;1.90;1.20;;;21.00;56.20;;;;;;4962143;28;20069;-17
2022/04/23 06:44:00;;;;;;;1.55;1.45;;;21.00;56.50;;;;;;4965445;28;20058;-17
2022/04/23 06:46:25;;;;;;;3.33;1.50;;;21.00;56.20;;;;;;4964923;28;20055;-18
2022/04/23 06:48:51;;;;;;;1.58;1.35;;;20.90;56.30;;;;;;4965496;28;20054;-18
2022/04/23 06:51:16;;;;;;;1.20;1.10;;;21.00;56.40;;;;;;4962282;28;20062;-17
2022/04/23 06:53:42;;;;;;;2.28;1.50;;;20.90;56.20;;;;;;4964447;28;20076;-18
2022/04/23 06:56:08;;;;;;;1.80;1.70;;;21.00;56.10;;;;;;4964954;28;20058;-16
2022/04/23 06:58:34;;;;;;;2.35;1.40;;;21.00;56.10;;;;;;4963484;28;20047;-17
2022/04/23 07:01:00;;;;;;;1.40;1.30;;;21.00;56.10;;;;;;4963248;28;20062;-17
2022/04/23 07:03:26;;;;;;;1.15;1.15;;;21.00;56.00;;;;;;4964170;28;20045;-17
2022/04/23 07:05:51;;;;;;;3.20;1.30;;;21.00;55.90;;;;;;4964800;28;20070;-18
2022/04/23 07:08:17;;;;;;;1.70;1.50;;;21.00;55.90;;;;;;4965187;28;20063;-18
2022/04/23 07:10:44;;;;;;;2.33;1.30;;;21.00;55.90;;;;;;4961334;28;20113;-17
2022/04/23 07:13:10;;;;;;;1.38;1.27;;;21.10;55.90;;;;;;4964650;28;20051;-17
2022/04/23 07:15:36;;;;;;;1.50;1.40;;;21.10;56.00;;;;;;4962493;28;20578;-17
2022/04/23 07:18:02;;;;;;;3.00;1.85;;;21.20;55.40;;;;;;4964355;28;20791;-17
2022/04/23 07:20:27;;;;;;;4.55;3.20;;;21.10;55.00;;;;;;4962570;28;20054;-18
2022/04/23 07:25:37;;;;;;;4.30;4.00;;;20.90;53.00;;;;;;4961145;28;20085;-17
2022/04/23 07:28:03;;;;;;;4.70;4.40;;;20.80;52.10;;;;;;4961965;28;20051;-17
2022/04/23 07:30:29;;;;;;;4.70;4.40;;;20.70;51.70;;;;;;4959167;28;20617;-17
2022/04/23 07:32:55;;;;;;;8.15;4.88;;;20.60;51.70;;;;;;4961520;28;20054;-18
2022/04/23 07:38:20;;;;;;;;;;;20.50;51.40;;;;;;4961525;28;20053;-17
2022/04/23 07:40:49;;;;;;;3.88;3.67;;;20.60;51.10;;;;;;4957645;28;19918;-16
2022/04/23 07:43:15;;;;;;;4.28;4.03;;;20.60;51.00;;;;;;4961192;28;20054;-17
2022/04/23 07:45:42;;;;;;;6.07;3.70;;;20.50;51.20;;;;;;4960802;28;20579;-17
2022/04/23 07:48:09;;;;;;;4.10;3.90;;;20.30;51.40;;;;;;4961747;28;20050;-17
2022/04/23 07:50:35;;;;;;;4.43;4.20;;;20.30;51.20;;;;;;4957579;28;20066;-17
2022/04/23 07:53:01;;;;;;;4.00;3.80;;;20.20;51.40;;;;;;4961293;28;20054;-17
2022/04/23 07:55:29;;;;;;;4.20;4.00;;;20.20;51.50;;;;;;4960629;28;20054;-17
2022/04/23 07:57:57;;;;;;;4.40;4.10;;;20.20;51.60;;;;;;4961008;28;20055;-17
2022/04/23 08:00:22;;;;;;;3.92;3.63;;;20.00;52.00;;;;;;4959901;28;20441;-17
2022/04/23 08:02:48;;;;;;;4.05;3.85;;;20.10;52.50;;;;;;4959614;28;21552;-17
2022/04/23 08:05:13;;;;;;;3.20;3.10;;;20.10;52.30;;;;;;4961239;28;20145;-17
2022/04/23 08:07:39;;;;;;;3.38;3.17;;;20.10;52.20;;;;;;4960481;28;20074;-19
2022/04/23 08:10:06;;;;;;;3.50;3.30;;;20.20;52.10;;;;;;4960597;28;20046;-17
2022/04/23 08:12:35;;;;;;;3.20;3.00;;;20.20;52.20;;;;;;4959486;28;20047;-18
2022/04/23 08:15:01;;;;;;;3.35;3.15;;;20.30;52.30;;;;;;4959493;28;20054;-18
2022/04/23 08:17:26;;;;;;;3.10;2.90;;;20.30;52.30;;;;;;4960655;28;20692;-18
2022/04/23 08:19:52;;;;;;;2.65;2.55;;;20.30;52.30;;;;;;4959774;28;20071;-17
2022/04/23 08:22:18;;;;;;;3.33;3.08;;;20.30;52.40;;;;;;4957439;28;20062;-17
2022/04/23 08:24:43;;;;;;;2.88;2.70;;;20.40;52.40;;;;;;4959448;28;20039;-17
2022/04/23 08:27:09;;;;;;;3.65;2.85;;;20.40;52.50;;;;;;4962628;28;20050;-17
2022/04/23 08:32:19;;;;;;;2.92;2.83;;;20.60;52.20;;;;;;4959206;28;20116;-17
2022/04/23 08:34:45;;;;;;;2.88;2.78;;;20.60;52.40;;;;;;4961433;28;20050;-17
2022/04/23 08:37:12;;;;;;;3.50;3.20;;;20.70;52.00;;;;;;4962026;28;20206;-17
2022/04/23 08:39:39;;;;;;;4.05;3.85;;;20.70;52.10;;;;;;4961375;28;20408;-17
2022/04/23 08:42:06;;;;;;;3.55;3.25;;;20.60;52.00;;;;;;4958488;28;20043;-18
2022/04/23 08:44:32;;;;;;;3.80;3.58;;;20.50;52.30;;;;;;4959369;28;20259;-18
2022/04/23 08:46:57;;;;;;;3.90;3.60;;;20.50;52.30;;;;;;4962412;28;20078;-18
2022/04/23 08:49:32;;;;;;;3.83;3.55;;;20.50;52.40;;;;;;4962117;28;20043;-18
2022/04/23 08:52:14;;;;;;;3.75;3.50;;;20.50;52.20;;;;;;4961009;28;20057;-16
2022/04/23 08:54:40;;;;;;;3.97;3.70;;;20.40;52.40;;;;;;4960231;28;20062;-15
2022/04/23 08:57:05;;;;;;;4.10;3.80;;;20.50;52.10;;;;;;4959897;28;20054;-16
2022/04/23 08:59:31;;;;;;;4.35;4.05;;;20.40;52.10;;;;;;4961117;28;20133;-16
2022/04/23 09:01:57;;;;;;;4.35;4.05;;;20.40;52.00;;;;;;4991032;28;20061;-16
2022/04/23 09:04:22;;;;;;;4.05;3.65;;;20.40;52.00;;;;;;4962496;28;20633;-16
2022/04/23 09:06:48;;;;;;;3.92;3.72;;;20.20;52.10;;;;;;4960625;28;20133;-16
2022/04/23 09:09:16;;;;;;;4.10;3.90;;;20.30;52.00;;;;;;4962455;28;20054;-16
2022/04/23 09:11:44;;;;;;;3.92;3.60;;;20.20;52.30;;;;;;4958901;28;20519;-16
2022/04/23 09:14:12;;;;;;;5.28;4.78;;;20.30;52.30;;;;;;4960132;28;20054;-16
2022/04/23 09:25:12;;;;;;;4.05;3.85;;;20.20;52.40;;;;;;4960063;28;20061;-16
2022/04/23 09:27:38;;;;;;;4.57;4.18;;;20.30;52.30;;;;;;4959507;28;20043;-16
2022/04/23 09:30:05;;;;;;;3.92;3.60;;;20.30;52.30;;;;;;4957912;28;20058;-16
2022/04/23 09:32:31;;;;;;;4.00;3.75;;;20.50;52.00;;;;;;4958639;28;20101;-17
2022/04/23 09:35:10;;;;;;;3.97;3.67;;;20.40;52.00;;;;;;4959567;28;20058;-16
2022/04/23 09:40:27;;;;;;;3.97;3.67;;;20.30;52.10;;;;;;4959277;28;20078;-16
2022/04/23 09:43:11;;;;;;;3.92;3.72;;;20.30;51.90;;;;;;4960285;28;20715;-16
2022/04/23 09:45:42;;;;;;;3.45;3.25;;;20.40;52.10;;;;;;4960529;28;20141;-16
2022/04/23 09:48:15;;;;;;;3.90;3.60;;;20.40;52.20;;;;;;4960066;28;20720;-17
2022/04/23 09:50:41;;;;;;;3.63;3.42;;;20.40;51.90;;;;;;4956753;28;20917;-18
2022/04/23 09:53:08;;;;;;;3.92;3.72;;;20.30;52.20;;;;;;4959506;28;20051;-16
2022/04/23 09:55:34;;;;;;;4.32;3.95;;;20.30;52.20;;;;;;4960355;28;20046;-16
2022/04/23 09:57:59;;;;;;;4.30;4.03;;;20.20;52.60;;;;;;4960122;28;20118;-16
2022/04/23 10:00:25;;;;;;;3.75;3.45;;;20.20;52.60;;;;;;4957757;28;20463;-16
2022/04/23 10:02:50;;;;;;;3.90;3.70;;;20.20;52.50;;;;;;4958743;28;20839;-16
2022/04/23 10:05:17;;;;;;;6.22;4.20;;;20.30;52.40;;;;;;4958914;28;20066;-17
2022/04/23 10:07:43;;;;;;;4.13;3.83;;;20.30;52.50;;;;;;4960288;28;20039;-16
2022/04/23 10:10:09;;;;;;;4.25;3.95;;;20.20;52.50;;;;;;4958262;28;20049;-16
2022/04/23 10:12:34;;;;;;;4.20;3.90;;;20.20;52.60;;;;;;4958505;28;20049;-16
2022/04/23 10:15:00;;;;;;;3.95;3.65;;;20.20;52.80;;;;;;4612593;28;10000248;-16
2022/04/23 10:17:27;;;;;;;4.45;4.05;;;20.30;52.80;;;;;;4957908;28;20047;-16
2022/04/23 10:19:53;;;;;;;4.28;4.00;;;20.20;53.20;;;;;;4955151;28;20096;-16
2022/04/23 10:22:35;;;;;;;3.97;3.63;;;20.20;53.40;;;;;;4954318;28;20051;-16
2022/04/23 10:25:27;;;;;;;4.38;4.05;;;20.20;53.50;;;;;;4955302;28;20393;-16
2022/04/23 10:27:55;;;;;;;3.90;3.70;;;20.20;53.70;;;;;;4956193;28;20093;-16
2022/04/23 10:30:21;;;;;;;4.13;3.83;;;20.20;53.80;;;;;;4954720;28;20070;-16
2022/04/23 10:32:47;;;;;;;4.20;4.00;;;20.20;53.80;;;;;;4957358;28;20162;-16
2022/04/23 10:35:19;;;;;;;3.97;3.78;;;20.20;53.80;;;;;;4957117;28;20333;-17
2022/04/23 10:37:50;;;;;;;4.15;3.85;;;20.40;53.70;;;;;;4956314;28;20138;-15
2022/04/23 10:40:19;;;;;;;4.32;3.92;;;20.30;53.90;;;;;;4956635;28;20051;-16
2022/04/23 10:43:04;;;;;;;4.20;3.90;;;20.40;54.00;;;;;;4939444;28;20046;-16
2022/04/23 10:45:33;;;;;;;3.92;3.63;;;20.40;53.90;;;;;;4960792;28;20050;-16
2022/04/23 10:48:22;;;;;;;3.95;3.72;;;20.50;53.70;;;;;;4961656;28;20047;-17
2022/04/23 10:51:08;;;;;;;4.53;4.13;;;20.50;53.80;;;;;;4959592;28;20065;-16
2022/04/23 10:53:41;;;;;;;3.83;3.63;;;20.50;54.30;;;;;;4962356;28;20058;-17
2022/04/23 10:56:11;;;;;;;4.07;3.47;;;20.50;54.10;;;;;;4961423;28;20562;-18
2022/04/23 10:58:38;;;;;;;5.13;3.65;;;20.60;53.60;;;;;;4962487;28;20054;-17
2022/04/23 11:01:22;;;;;;;3.55;3.35;;;20.60;53.20;;;;;;4959833;28;20054;-16
2022/04/23 11:03:57;;;;;;;3.67;3.47;;;20.70;53.10;;;;;;4961264;28;20803;-18
2022/04/23 11:12:23;;;;;;;3.47;3.17;;;20.70;53.40;;;;;;4958835;28;20040;-16
2022/04/23 11:14:52;;;;;;;3.55;3.35;;;20.70;53.10;;;;;;4960997;28;20057;-16
2022/04/23 11:17:36;;;;;;;3.47;3.17;;;20.80;53.00;;;;;;4959990;28;20073;-16
2022/04/23 11:20:02;;;;;;;3.40;3.13;;;20.80;53.20;;;;;;4960688;28;20058;-16
2022/04/23 11:22:28;;;;;;;3.83;3.22;;;20.90;53.10;;;;;;4959954;28;20051;-17
2022/04/23 11:24:53;;;;;;;3.17;2.97;;;20.90;53.00;;;;;;4960266;28;20050;-16
2022/04/23 11:27:24;;;;;;;3.15;2.75;;;20.90;52.90;;;;;;4958367;28;20060;-17
2022/04/23 11:29:53;;;;;;;2.70;2.60;;;20.90;53.10;;;;;;4960084;28;20042;-16
2022/04/23 11:32:29;;;;;;;3.22;2.95;;;21.10;52.90;;;;;;4940979;28;20145;-16
2022/04/23 11:35:05;;;;;;;2.70;2.60;;;21.10;52.90;;;;;;4960300;28;20950;-16
2022/04/23 11:37:34;;;;;;;2.78;2.58;;;21.10;53.10;;;;;;4960528;28;20105;-17
2022/04/23 11:40:07;;;;;;;2.67;2.47;;;21.10;53.00;;;;;;4959613;28;20050;-17
2022/04/23 11:42:46;;;;;;;4.10;2.50;;;21.10;53.00;;;;;;4959702;28;20074;-16
2022/04/23 11:45:12;;;;;;;2.80;2.60;;;21.20;53.00;;;;;;4958579;28;20124;-17
2022/04/23 11:47:38;;;;;;;3.17;2.10;;;21.20;52.90;;;;;;4960362;28;20047;-17
2022/04/23 11:50:11;;;;;;;2.08;1.98;;;21.30;52.90;;;;;;4960492;28;20073;-17
2022/04/23 11:52:38;;;;;;;2.70;2.50;;;21.30;52.90;;;;;;4960529;28;21378;-17
2022/04/23 11:55:04;;;;;;;2.47;2.38;;;21.30;52.90;;;;;;4958809;28;20449;-16
2022/04/23 11:57:29;;;;;;;2.47;2.38;;;21.30;52.90;;;;;;4960420;28;20050;-16
2022/04/23 12:00:02;;;;;;;2.22;2.13;;;21.30;52.90;;;;;;4960259;28;20050;-16
2022/04/23 12:02:29;;;;;;;2.43;2.30;;;21.30;52.90;;;;;;4957014;28;20082;-17
2022/04/23 12:04:59;;;;;;;2.03;1.83;;;21.30;53.00;;;;;;4957344;28;20054;-16
2022/04/23 12:07:25;;;;;;;1.98;1.88;;;21.40;52.90;;;;;;4960910;28;20097;-17
2022/04/23 12:09:52;;;;;;;2.00;1.90;;;21.40;52.90;;;;;;4960177;28;20070;-16
2022/04/23 12:12:22;;;;;;;2.08;1.98;;;21.40;52.90;;;;;;4959649;28;20069;-17
2022/04/23 12:15:17;;;;;;;2.20;2.10;;;21.40;52.80;;;;;;4959962;28;20047;-16
2022/04/23 12:17:55;;;;;;;2.08;1.98;;;21.40;52.90;;;;;;4959908;28;20046;-16
2022/04/23 12:20:24;;;;;;;2.50;1.90;;;21.40;52.90;;;;;;4960074;28;20113;-17
2022/04/23 12:23:00;;;;;;;2.00;1.90;;;21.50;52.90;;;;;;4961287;28;20069;-16
2022/04/23 12:25:36;;;;;;;2.00;1.90;;;21.50;52.80;;;;;;4962199;28;20055;-17
2022/04/23 12:28:01;;;;;;;1.63;1.63;;;21.50;52.80;;;;;;4962385;28;21178;-16
2022/04/23 12:42:10;;;;;;;1.77;1.73;;;21.50;52.70;;;;;;4959943;28;20057;-16
2022/04/23 12:44:45;;;;;;;2.33;2.22;;;21.60;52.70;;;;;;4961741;28;20094;-17
2022/04/23 12:47:16;;;;;;;1.80;1.70;;;21.50;52.80;;;;;;4962768;28;20080;-16
2022/04/23 12:49:50;;;;;;;2.03;1.92;;;21.50;52.90;;;;;;4962414;28;20061;-17
2022/04/23 12:52:21;;;;;;;1.73;1.63;;;21.50;52.80;;;;;;4953264;28;20058;-17
2022/04/23 12:55:14;;;;;;;2.00;1.90;;;21.50;52.80;;;;;;4960326;28;20093;-16
2022/04/23 12:57:53;;;;;;;1.85;1.70;;;21.50;52.90;;;;;;4962488;28;21514;-17
2022/04/23 13:00:22;;;;;;;1.90;1.80;;;21.60;52.90;;;;;;4960450;28;20069;-16
2022/04/23 13:02:52;;;;;;;1.80;1.70;;;21.60;52.90;;;;;;4961699;28;20057;-17
2022/04/23 13:05:18;;;;;;;2.08;1.70;;;21.50;53.00;;;;;;4962527;28;20057;-16
2022/04/23 13:10:28;;;;;;;;;;;21.60;53.10;;;;;;4960147;28;21537;-16
2022/04/23 13:12:54;;;;;;;1.60;1.50;;;21.70;53.10;;;;;;4959961;28;19925;-17
2022/04/23 13:15:19;;;;;;;2.10;2.00;;;21.70;53.10;;;;;;4961673;28;20101;-17
2022/04/23 13:17:46;;;;;;;1.80;1.70;;;21.70;53.20;;;;;;4961814;28;20047;-17
2022/04/23 13:20:13;;;;;;;2.05;1.95;;;21.60;53.30;;;;;;4959327;28;20053;-16
2022/04/23 13:22:41;;;;;;;1.77;1.67;;;21.60;53.30;;;;;;4959268;28;20054;-17
2022/04/23 13:25:07;;;;;;;2.03;1.90;;;21.60;54.00;;;;;;4960447;28;20066;-16
2022/04/23 13:27:33;;;;;;;1.70;1.60;;;21.60;53.40;;;;;;4613472;28;10000584;-17
2022/04/23 13:29:59;;;;;;;3.05;1.73;;;21.70;53.50;;;;;;4957913;28;20070;-17